createdAt,value
2022-10-05T00:01:01.813Z,56.29
2022-10-05T00:03:38.938Z,56.39
2022-10-05T00:06:05.644Z,56.29
2022-10-05T00:08:33.791Z,56.34
2022-10-05T00:11:00.364Z,56.35
2022-10-05T00:13:28.916Z,56.26
2022-10-05T00:16:05.530Z,56.29
2022-10-05T00:18:32.295Z,56.38
2022-10-05T00:20:58.804Z,56.70
2022-10-05T00:23:31.771Z,56.22
2022-10-05T00:26:32.258Z,56.29
2022-10-05T00:28:58.741Z,56.34
2022-10-05T00:31:29.379Z,56.29
2022-10-05T00:33:55.996Z,56.27
2022-10-05T00:36:22.537Z,56.23
2022-10-05T00:38:49.045Z,56.28
2022-10-05T00:41:25.136Z,56.31
2022-10-05T00:44:12.848Z,56.34
2022-10-05T00:46:55.758Z,56.32
2022-10-05T00:49:46.196Z,56.35
2022-10-05T00:52:48.128Z,56.32
2022-10-05T00:55:39.665Z,56.32
2022-10-05T00:58:24.762Z,56.35
2022-10-05T01:00:51.201Z,56.26
2022-10-05T01:03:26.141Z,56.46
2022-10-05T01:06:10.966Z,56.45
2022-10-05T01:08:41.679Z,56.37
2022-10-05T01:11:18.994Z,56.34
2022-10-05T01:13:59.417Z,56.47
2022-10-05T01:16:30.529Z,56.29
2022-10-05T01:19:02.123Z,56.47
2022-10-05T01:21:28.691Z,56.41
2022-10-05T01:24:10.302Z,56.45
2022-10-05T01:26:43.513Z,56.50
2022-10-05T01:29:26.918Z,56.48
2022-10-05T01:32:27.543Z,56.48
2022-10-05T01:35:15.817Z,56.56
2022-10-05T01:38:02.725Z,56.49
2022-10-05T01:40:29.093Z,56.30
2022-10-05T01:43:14.394Z,56.32
2022-10-05T01:46:06.768Z,56.50
2022-10-05T01:48:58.317Z,56.44
2022-10-05T01:51:24.677Z,56.48
2022-10-05T01:54:13.068Z,56.37
2022-10-05T01:56:54.608Z,56.70
2022-10-05T01:59:39.794Z,56.48
2022-10-05T02:02:09.603Z,56.40
2022-10-05T02:05:03.335Z,56.43
2022-10-05T02:07:34.583Z,56.57
2022-10-05T02:10:05.492Z,56.38
2022-10-05T02:12:34.773Z,56.44
2022-10-05T02:15:07.265Z,56.48
2022-10-05T02:17:40.428Z,56.43
2022-10-05T02:20:10.267Z,56.55
2022-10-05T02:22:42.931Z,56.57
2022-10-05T02:25:17.802Z,56.37
2022-10-05T02:27:57.707Z,56.59
2022-10-05T02:30:24.236Z,56.43
2022-10-05T02:33:05.645Z,56.49
2022-10-05T02:35:32.218Z,56.47
2022-10-05T02:38:01.332Z,56.63
2022-10-05T02:40:55.888Z,56.38
2022-10-05T02:43:26.481Z,56.45
2022-10-05T02:46:06.916Z,56.46
2022-10-05T02:48:55.864Z,56.51
2022-10-05T02:51:40.989Z,56.45
2022-10-05T02:54:32.562Z,56.42
2022-10-05T02:57:24.132Z,56.68
2022-10-05T03:00:07.293Z,56.38
2022-10-05T03:02:52.030Z,56.52
2022-10-05T03:05:19.991Z,56.52
2022-10-05T03:08:02.317Z,56.42
2022-10-05T03:10:53.139Z,56.26
2022-10-05T03:13:41.184Z,56.39
2022-10-05T03:16:17.065Z,56.44
2022-10-05T03:19:12.593Z,56.49
2022-10-05T03:22:08.583Z,56.50
2022-10-05T03:24:41.074Z,56.28
2022-10-05T03:27:28.963Z,56.52
2022-10-05T03:30:08.115Z,56.40
2022-10-05T03:32:49.885Z,56.47
2022-10-05T03:35:49.053Z,56.55
2022-10-05T03:38:18.100Z,56.67
2022-10-05T03:40:44.492Z,56.41
2022-10-05T03:43:32.829Z,56.40
2022-10-05T03:46:20.339Z,56.47
2022-10-05T03:48:59.473Z,56.33
2022-10-05T03:51:57.473Z,56.45
2022-10-05T03:54:27.115Z,56.41
2022-10-05T03:57:11.619Z,56.61
2022-10-05T03:59:41.967Z,56.31
2022-10-05T04:02:23.199Z,56.40
2022-10-05T04:04:52.972Z,56.46
2022-10-05T04:07:36.196Z,56.21
2022-10-05T04:10:05.428Z,56.39
2022-10-05T04:12:42.816Z,56.42
2022-10-05T04:15:33.827Z,56.42
2022-10-05T04:18:16.980Z,56.44
2022-10-05T04:20:48.845Z,56.54
2022-10-05T04:23:30.366Z,56.39
2022-10-05T04:26:04.077Z,56.22
2022-10-05T04:29:12.033Z,56.47
2022-10-05T04:32:03.260Z,56.42
2022-10-05T04:35:00.967Z,56.41
2022-10-05T04:37:50.581Z,56.54
2022-10-05T04:40:35.882Z,56.39
2022-10-05T04:43:32.725Z,56.37
2022-10-05T04:46:23.621Z,56.37
2022-10-05T04:48:59.181Z,56.46
2022-10-05T04:52:10.089Z,56.39
2022-10-05T04:54:41.889Z,56.34
2022-10-05T04:57:19.542Z,56.31
2022-10-05T05:00:08.690Z,54.14
2022-10-05T05:02:53.336Z,52.31
2022-10-05T05:06:16.275Z,51.87
2022-10-05T05:08:58.150Z,50.26
2022-10-05T05:11:29.060Z,49.88
2022-10-05T05:14:17.101Z,50.91
2022-10-05T05:16:44.784Z,51.54
2022-10-05T05:19:35.593Z,51.93
2022-10-05T05:22:38.188Z,52.47
2022-10-05T05:25:32.102Z,52.62
2022-10-05T05:28:08.674Z,52.97
2022-10-05T05:30:35.325Z,52.94
2022-10-05T05:33:24.160Z,53.16
2022-10-05T05:35:59.540Z,53.29
2022-10-05T05:38:50.940Z,53.51
2022-10-05T05:41:27.560Z,53.57
2022-10-05T05:44:26.081Z,53.63
2022-10-05T05:47:04.324Z,53.82
2022-10-05T05:49:55.041Z,53.93
2022-10-05T05:52:28.196Z,53.95
2022-10-05T05:55:13.503Z,54.06
2022-10-05T05:58:16.976Z,54.12
2022-10-05T06:01:30.577Z,54.18
2022-10-05T06:04:02.121Z,54.26
2022-10-05T06:06:32.639Z,54.39
2022-10-05T06:09:03.135Z,54.18
2022-10-05T06:11:45.628Z,54.44
2022-10-05T06:14:23.178Z,54.32
2022-10-05T06:17:12.282Z,54.53
2022-10-05T06:19:38.795Z,55.09
2022-10-05T06:22:42.943Z,54.50
2022-10-05T06:25:25.848Z,54.63
2022-10-05T06:28:13.770Z,54.50
2022-10-05T06:30:55.599Z,54.52
2022-10-05T06:33:25.008Z,54.60
2022-10-05T06:36:27.992Z,54.56
2022-10-05T06:39:14.754Z,54.49
2022-10-05T06:41:50.339Z,54.73
2022-10-05T06:44:21.146Z,54.48
2022-10-05T06:46:53.812Z,54.60
2022-10-05T06:49:26.888Z,54.61
2022-10-05T06:52:01.487Z,53.48
2022-10-05T06:54:28.130Z,52.50
2022-10-05T06:57:19.465Z,53.16
2022-10-05T06:59:57.552Z,53.37
2022-10-05T07:02:32.895Z,53.46
2022-10-05T07:05:30.928Z,53.73
2022-10-05T07:08:03.555Z,53.92
2022-10-05T07:10:57.844Z,54.18
2022-10-05T07:13:27.917Z,54.05
2022-10-05T07:16:19.071Z,54.04
2022-10-05T07:19:03.476Z,54.19
2022-10-05T07:21:59.234Z,54.23
2022-10-05T07:24:30.653Z,54.14
2022-10-05T07:27:33.925Z,54.25
2022-10-05T07:30:09.590Z,54.23
2022-10-05T07:32:40.113Z,54.42
2022-10-05T07:35:39.292Z,54.33
2022-10-05T07:38:35.696Z,54.37
2022-10-05T07:41:06.271Z,53.39
2022-10-05T07:44:01.390Z,53.27
2022-10-05T07:46:51.753Z,52.99
2022-10-05T07:49:36.229Z,52.56
2022-10-05T07:52:15.949Z,52.42
2022-10-05T07:55:19.034Z,52.79
2022-10-05T07:57:53.104Z,53.05
2022-10-05T08:00:20.884Z,53.25
2022-10-05T08:02:58.246Z,53.36
2022-10-05T08:05:32.408Z,53.58
2022-10-05T08:08:13.228Z,53.62
2022-10-05T08:10:44.801Z,53.77
2022-10-05T08:13:33.230Z,53.79
2022-10-05T08:16:01.766Z,53.81
2022-10-05T08:18:56.308Z,53.89
2022-10-05T08:21:31.348Z,53.87
2022-10-05T08:24:04.130Z,54.00
2022-10-05T08:26:48.237Z,53.95
2022-10-05T08:29:34.813Z,54.24
2022-10-05T08:32:03.428Z,54.04
2022-10-05T08:34:40.125Z,54.23
2022-10-05T08:37:27.347Z,54.17
2022-10-05T08:40:03.783Z,54.14
2022-10-05T08:43:11.609Z,54.15
2022-10-05T08:46:11.840Z,54.16
2022-10-05T08:48:38.538Z,54.22
2022-10-05T08:51:10.873Z,54.17
2022-10-05T08:53:43.252Z,54.28
2022-10-05T08:56:29.043Z,54.24
2022-10-05T08:59:07.545Z,54.33
2022-10-05T09:02:02.147Z,54.34
2022-10-05T09:04:38.783Z,54.36
2022-10-05T09:07:37.901Z,54.33
2022-10-05T09:10:16.533Z,54.42
2022-10-05T09:13:04.589Z,54.55
2022-10-05T09:15:42.438Z,54.46
2022-10-05T09:18:30.584Z,54.50
2022-10-05T09:21:05.996Z,54.51
2022-10-05T09:23:39.192Z,54.42
2022-10-05T09:26:09.235Z,54.40
2022-10-05T09:28:47.291Z,54.25
2022-10-05T09:31:31.172Z,54.40
2022-10-05T09:34:18.838Z,54.30
2022-10-05T09:36:48.379Z,54.47
2022-10-05T09:39:39.740Z,54.62
2022-10-05T09:42:22.836Z,54.55
2022-10-05T09:44:53.983Z,54.58
2022-10-05T09:47:45.218Z,54.64
2022-10-05T09:50:36.444Z,54.61
2022-10-05T09:53:10.000Z,54.65
2022-10-05T09:55:51.112Z,54.78
2022-10-05T09:58:30.420Z,54.58
2022-10-05T10:01:08.941Z,54.64
2022-10-05T10:03:51.193Z,54.62
2022-10-05T10:06:29.743Z,54.58
2022-10-05T10:09:14.898Z,54.76
2022-10-05T10:11:54.637Z,54.56
2022-10-05T10:14:50.391Z,54.70
2022-10-05T10:17:52.122Z,54.70
2022-10-05T10:20:49.671Z,54.71
2022-10-05T10:23:48.493Z,54.65
2022-10-05T10:26:33.499Z,54.48
2022-10-05T10:29:33.360Z,54.76
2022-10-05T10:32:19.809Z,54.72
2022-10-05T10:34:55.227Z,54.83
2022-10-05T10:37:39.474Z,54.84
2022-10-05T10:40:37.149Z,54.92
2022-10-05T10:43:59.384Z,54.79
2022-10-05T10:46:39.831Z,54.79
2022-10-05T10:49:33.897Z,54.78
2022-10-05T10:52:16.037Z,54.94
2022-10-05T10:55:09.441Z,54.84
2022-10-05T10:57:55.756Z,54.90
2022-10-05T11:00:27.177Z,54.83
2022-10-05T11:03:15.601Z,54.85
2022-10-05T11:06:13.394Z,54.84
2022-10-05T11:08:52.960Z,54.91
2022-10-05T11:11:47.538Z,54.90
2022-10-05T11:14:48.281Z,54.87
2022-10-05T11:17:51.839Z,55.02
2022-10-05T11:20:21.304Z,54.93
2022-10-05T11:22:59.951Z,55.03
2022-10-05T11:25:47.840Z,54.92
2022-10-05T11:28:27.412Z,54.82
2022-10-05T11:31:28.195Z,54.95
2022-10-05T11:34:25.220Z,54.82
2022-10-05T11:37:10.521Z,55.00
2022-10-05T11:39:44.514Z,54.95
2022-10-05T11:42:29.729Z,55.03
2022-10-05T11:45:08.318Z,55.00
2022-10-05T11:47:46.339Z,55.07
2022-10-05T11:50:30.406Z,54.98
2022-10-05T11:53:02.388Z,54.79
2022-10-05T11:55:57.587Z,55.16
2022-10-05T11:58:29.651Z,55.17
2022-10-05T12:01:27.130Z,55.24
2022-10-05T12:04:10.744Z,55.24
2022-10-05T12:06:37.206Z,55.29
2022-10-05T12:09:07.821Z,55.22
2022-10-05T12:11:46.840Z,55.40
2022-10-05T12:14:25.450Z,55.20
2022-10-05T12:16:59.266Z,55.23
2022-10-05T12:19:36.479Z,55.27
2022-10-05T12:22:37.679Z,55.28
2022-10-05T12:25:24.028Z,55.11
2022-10-05T12:27:53.291Z,55.16
2022-10-05T12:30:46.796Z,55.42
2022-10-05T12:33:15.962Z,55.24
2022-10-05T12:35:49.213Z,55.02
2022-10-05T12:38:38.070Z,55.23
2022-10-05T12:41:27.495Z,55.28
2022-10-05T12:44:06.415Z,55.14
2022-10-05T12:46:41.517Z,55.21
2022-10-05T12:49:17.921Z,55.18
2022-10-05T12:51:58.487Z,55.10
2022-10-05T12:54:49.596Z,55.25
2022-10-05T12:57:27.976Z,55.25
2022-10-05T13:00:21.793Z,55.38
2022-10-05T13:03:00.252Z,55.26
2022-10-05T13:05:59.068Z,55.27
2022-10-05T13:08:45.092Z,55.17
2022-10-05T13:11:20.212Z,55.35
2022-10-05T13:14:07.374Z,55.32
2022-10-05T13:16:59.715Z,55.36
2022-10-05T13:20:06.640Z,55.29
2022-10-05T13:22:42.412Z,55.39
2022-10-05T13:25:17.290Z,55.36
2022-10-05T13:28:12.813Z,55.27
2022-10-05T13:30:39.481Z,55.55
2022-10-05T13:33:27.086Z,55.32
2022-10-05T13:36:17.257Z,55.30
2022-10-05T13:39:04.249Z,55.26
2022-10-05T13:41:40.946Z,55.28
2022-10-05T13:44:26.117Z,55.29
2022-10-05T13:47:05.570Z,55.44
2022-10-05T13:49:57.214Z,55.32
2022-10-05T13:52:29.668Z,55.33
2022-10-05T13:55:19.428Z,55.45
2022-10-05T13:58:18.401Z,55.28
2022-10-05T14:01:08.969Z,55.70
2022-10-05T14:03:37.011Z,55.51
2022-10-05T14:06:27.681Z,55.55
2022-10-05T14:08:54.212Z,55.38
2022-10-05T14:11:23.595Z,55.45
2022-10-05T14:13:50.161Z,55.51
2022-10-05T14:16:16.585Z,55.57
2022-10-05T14:19:10.984Z,55.58
2022-10-05T14:21:49.554Z,55.71
2022-10-05T14:24:44.590Z,55.61
2022-10-05T14:27:28.940Z,55.61
2022-10-05T14:30:02.942Z,55.57
2022-10-05T14:32:33.399Z,55.56
2022-10-05T14:35:05.085Z,55.57
2022-10-05T14:37:32.472Z,55.48
2022-10-05T14:40:03.377Z,55.54
2022-10-05T14:42:30.907Z,55.44
2022-10-05T14:45:01.647Z,55.48
2022-10-05T14:47:30.282Z,55.46
2022-10-05T14:50:21.257Z,55.60
2022-10-05T14:53:02.729Z,55.51
2022-10-05T14:55:38.447Z,55.44
2022-10-05T14:58:17.164Z,55.59
2022-10-05T15:00:57.443Z,55.58
2022-10-05T15:03:27.311Z,55.57
2022-10-05T15:05:54.691Z,55.55
2022-10-05T15:08:36.111Z,55.62
2022-10-05T15:11:09.681Z,55.64
2022-10-05T15:13:41.614Z,55.82
2022-10-05T15:16:19.174Z,55.67
2022-10-05T15:18:58.195Z,55.69
2022-10-05T15:21:42.173Z,55.66
2022-10-05T15:24:13.219Z,55.68
2022-10-05T15:26:52.758Z,55.69
2022-10-05T15:29:25.944Z,55.65
2022-10-05T15:32:14.701Z,55.65
2022-10-05T15:34:49.847Z,55.57
2022-10-05T15:37:18.960Z,55.64
2022-10-05T15:39:54.764Z,55.63
2022-10-05T15:42:25.638Z,55.53
2022-10-05T15:45:05.368Z,55.51
2022-10-05T15:47:58.276Z,55.66
2022-10-05T15:50:28.349Z,55.62
2022-10-05T15:52:57.652Z,55.59
2022-10-05T15:55:37.553Z,55.74
2022-10-05T15:58:59.871Z,55.74
2022-10-05T16:01:32.478Z,55.75
2022-10-05T16:04:13.032Z,55.67
2022-10-05T16:07:01.696Z,55.78
2022-10-05T16:09:38.878Z,55.68
2022-10-05T16:12:09.631Z,55.76
2022-10-05T16:14:47.978Z,55.75
2022-10-05T16:17:40.922Z,55.78
2022-10-05T16:20:35.728Z,55.71
2022-10-05T16:23:11.208Z,55.84
2022-10-05T16:25:44.126Z,55.78
2022-10-05T16:28:13.605Z,55.75
2022-10-05T16:31:00.545Z,55.63
2022-10-05T16:33:30.225Z,55.71
2022-10-05T16:36:22.557Z,55.94
2022-10-05T16:39:07.105Z,55.82
2022-10-05T16:41:42.910Z,55.85
2022-10-05T16:44:32.521Z,55.98
2022-10-05T16:47:23.927Z,55.83
2022-10-05T16:49:59.412Z,55.87
2022-10-05T16:52:26.451Z,55.83
2022-10-05T16:54:55.407Z,55.85
2022-10-05T16:57:35.265Z,55.84
2022-10-05T17:00:01.733Z,55.86
2022-10-05T17:02:40.709Z,55.80
2022-10-05T17:05:44.876Z,55.87
2022-10-05T17:08:30.275Z,55.90
2022-10-05T17:11:34.852Z,55.96
2022-10-05T17:14:06.593Z,55.92
2022-10-05T17:16:40.064Z,55.99
2022-10-05T17:19:26.736Z,55.88
2022-10-05T17:22:03.115Z,55.98
2022-10-05T17:24:51.468Z,55.93
2022-10-05T17:27:47.613Z,55.92
2022-10-05T17:30:38.453Z,56.02
2022-10-05T17:33:21.616Z,55.83
2022-10-05T17:36:04.571Z,55.99
2022-10-05T17:38:30.978Z,55.91
2022-10-05T17:41:00.197Z,56.10
2022-10-05T17:43:30.790Z,56.13
2022-10-05T17:45:57.311Z,55.98
2022-10-05T17:48:48.343Z,56.20
2022-10-05T17:51:48.484Z,56.02
2022-10-05T17:54:44.124Z,55.99
2022-10-05T17:57:10.489Z,55.98
2022-10-05T17:59:46.079Z,56.14
2022-10-05T18:02:20.841Z,56.08
2022-10-05T18:05:12.626Z,56.18
2022-10-05T18:07:39.887Z,56.08
2022-10-05T18:10:09.424Z,56.26
2022-10-05T18:13:00.634Z,56.13
2022-10-05T18:15:27.026Z,56.25
2022-10-05T18:18:20.767Z,56.21
2022-10-05T18:21:19.233Z,56.18
2022-10-05T18:23:51.752Z,56.21
2022-10-05T18:26:27.295Z,56.27
2022-10-05T18:29:14.242Z,56.13
2022-10-05T18:31:51.810Z,56.00
2022-10-05T18:34:34.949Z,56.27
2022-10-05T18:37:26.858Z,56.31
2022-10-05T18:40:08.548Z,56.19
2022-10-05T18:42:56.828Z,56.38
2022-10-05T18:45:37.972Z,56.18
2022-10-05T18:48:25.859Z,56.45
2022-10-05T18:51:14.045Z,56.29
2022-10-05T18:53:40.507Z,56.31
2022-10-05T18:56:48.308Z,56.28
2022-10-05T18:59:35.808Z,56.19
2022-10-05T19:02:08.529Z,56.25
2022-10-05T19:04:38.180Z,56.23
2022-10-05T19:07:13.323Z,56.21
2022-10-05T19:09:58.698Z,56.24
2022-10-05T19:13:00.702Z,56.17
2022-10-05T19:15:49.909Z,56.24
2022-10-05T19:18:39.676Z,56.32
2022-10-05T19:21:33.066Z,56.37
2022-10-05T19:24:22.757Z,56.26
2022-10-05T19:27:12.461Z,56.35
2022-10-05T19:30:03.463Z,56.37
2022-10-05T19:32:45.365Z,56.55
2022-10-05T19:35:12.000Z,56.37
2022-10-05T19:37:57.312Z,56.36
2022-10-05T19:40:29.825Z,56.38
2022-10-05T19:43:05.291Z,56.36
2022-10-05T19:45:33.367Z,56.55
2022-10-05T19:48:15.081Z,56.44
2022-10-05T19:50:53.021Z,56.51
2022-10-05T19:53:37.913Z,56.36
2022-10-05T19:56:22.136Z,56.45
2022-10-05T19:58:49.475Z,56.36
2022-10-05T20:01:27.130Z,56.44
2022-10-05T20:03:53.883Z,56.44
2022-10-05T20:06:21.613Z,56.59
2022-10-05T20:08:49.368Z,56.49
2022-10-05T20:11:20.052Z,56.54
2022-10-05T20:13:52.336Z,56.50
2022-10-05T20:19:52.030Z,56.58
2022-10-05T20:22:46.065Z,56.51
2022-10-05T20:25:18.648Z,56.79
2022-10-05T20:27:51.817Z,56.65
2022-10-05T20:30:22.970Z,56.52
2022-10-05T20:32:50.267Z,56.54
2022-10-05T20:35:22.164Z,56.50
2022-10-05T20:37:49.970Z,56.54
2022-10-05T20:40:18.707Z,56.85
2022-10-05T20:42:45.389Z,56.55
2022-10-05T20:45:12.293Z,56.56
2022-10-05T20:47:39.012Z,56.69
2022-10-05T20:50:08.998Z,56.60
2022-10-05T20:52:37.211Z,56.62
2022-10-05T20:55:08.718Z,56.49
2022-10-05T20:57:38.433Z,56.65
2022-10-05T21:00:05.696Z,56.72
2022-10-05T21:02:32.163Z,56.71
2022-10-05T21:04:58.670Z,56.66
2022-10-05T21:07:25.710Z,57.25
2022-10-05T21:09:52.236Z,56.60
2022-10-05T21:12:18.763Z,56.66
2022-10-05T21:14:46.178Z,56.80
2022-10-05T21:17:12.720Z,56.74
2022-10-05T21:19:40.447Z,56.79
2022-10-05T21:22:08.168Z,56.68
2022-10-05T21:24:38.342Z,56.78
2022-10-05T21:27:05.024Z,56.86
2022-10-05T21:29:31.687Z,56.80
2022-10-05T21:31:58.212Z,56.84
2022-10-05T21:34:24.769Z,56.89
2022-10-05T21:36:51.372Z,56.59
2022-10-05T21:39:17.991Z,56.94
2022-10-05T21:41:44.508Z,56.90
2022-10-05T21:44:11.054Z,56.88
2022-10-05T21:46:37.572Z,56.65
2022-10-05T21:49:05.720Z,56.76
2022-10-05T21:51:32.221Z,56.86
2022-10-05T21:54:01.916Z,56.88
2022-10-05T21:56:30.880Z,56.83
2022-10-05T21:58:57.411Z,56.84
2022-10-05T22:01:23.949Z,56.97
2022-10-05T22:03:50.495Z,56.94
2022-10-05T22:06:17.004Z,56.62
2022-10-05T22:08:43.518Z,57.05
2022-10-05T22:11:11.875Z,57.03
2022-10-05T22:13:46.702Z,56.85
2022-10-05T22:16:15.643Z,56.82
2022-10-05T22:18:42.367Z,56.99
2022-10-05T22:21:11.230Z,56.96
2022-10-05T22:23:38.864Z,56.91
2022-10-05T22:26:05.525Z,56.95
2022-10-05T22:28:32.692Z,56.95
2022-10-05T22:31:00.218Z,56.89
2022-10-05T22:33:27.179Z,56.87
2022-10-05T22:35:53.657Z,56.89
2022-10-05T22:38:20.158Z,57.13
2022-10-05T22:40:46.702Z,57.08
2022-10-05T22:43:13.166Z,57.08
2022-10-05T22:45:39.918Z,57.12
2022-10-05T22:48:06.533Z,57.04
2022-10-05T22:50:33.019Z,57.08
2022-10-05T22:52:59.559Z,57.05
2022-10-05T22:55:26.066Z,56.64
2022-10-05T22:57:52.563Z,56.97
2022-10-05T23:00:19.400Z,57.05
2022-10-05T23:02:47.136Z,56.98
2022-10-05T23:05:14.572Z,56.71
2022-10-05T23:07:46.510Z,57.04
2022-10-05T23:10:16.172Z,57.10
2022-10-05T23:12:42.834Z,57.08
2022-10-05T23:15:10.227Z,56.96
2022-10-05T23:17:38.875Z,57.13
2022-10-05T23:20:06.744Z,57.14
2022-10-05T23:22:37.227Z,57.13
2022-10-05T23:25:09.927Z,57.08
2022-10-05T23:27:37.788Z,57.03
2022-10-05T23:30:06.020Z,57.26
2022-10-05T23:32:32.683Z,57.32
2022-10-05T23:34:59.191Z,57.03
2022-10-05T23:37:27.969Z,57.08
2022-10-05T23:39:54.461Z,57.36
2022-10-05T23:42:21.168Z,57.14
2022-10-05T23:44:47.677Z,57.21
2022-10-05T23:47:14.143Z,57.29
2022-10-05T23:49:40.616Z,57.25
2022-10-05T23:52:07.132Z,57.14
2022-10-05T23:54:33.627Z,56.81
2022-10-05T23:57:00.111Z,57.13
2022-10-05T23:59:26.660Z,57.11
